Time;durP1;ratioP1;P1;durP2;ratioP2;P2;SDS_P1;SDS_P2;PMS_P1;PMS_P2;Temp;Humidity;BMP_temperature;BMP_pressure;BME280_temperature;BME280_humidity;BME280_pressure;Samples;Min_cycle;Max_cycle;Signal;HPM_P1;HPM_P2
2024/03/24 02:54:15;;;;;;;1999.90;999.90;;;;;;;;;;5671063;23;20248;-67
2024/03/24 02:56:59;;;;;;;1999.90;999.90;;;;;;;;;;4988071;28;20243;-68
2024/03/24 02:59:44;;;;;;;1999.90;999.90;;;;;;;;;;4991700;28;20353;-68
2024/03/24 03:02:28;;;;;;;1999.90;999.90;;;;;;;;;;4973364;28;20453;-69
2024/03/24 03:05:14;;;;;;;1999.90;999.90;;;;;;;;;;4974341;28;20254;-67
2024/03/24 03:07:58;;;;;;;1999.90;999.90;;;;;;;;;;4974386;28;20595;-68
2024/03/24 03:10:44;;;;;;;1999.90;999.90;;;;;;;;;;4974787;28;20261;-68
2024/03/24 03:13:28;;;;;;;1999.90;999.90;;;;;;;;;;4989468;28;20242;-69
2024/03/24 03:16:13;;;;;;;1999.90;999.90;;;;;;;;;;4993817;28;20210;-69
2024/03/24 03:18:57;;;;;;;1999.90;999.90;;;;;;;;;;4992735;28;20407;-68
2024/03/24 03:21:42;;;;;;;1999.90;999.90;;;;;;;;;;4993792;28;20222;-68
2024/03/24 03:24:25;;;;;;;1999.90;999.90;;;;;;;;;;4993454;28;20230;-68
2024/03/24 03:27:12;;;;;;;1999.90;999.90;;;;;;;;;;4993679;28;20370;-68
2024/03/24 03:29:56;;;;;;;1999.90;999.90;;;;;;;;;;4993517;28;20715;-68
2024/03/24 03:32:41;;;;;;;1999.90;999.90;;;;;;;;;;4993701;28;20205;-68
2024/03/24 03:35:25;;;;;;;1999.90;999.90;;;;;;;;;;4993000;28;20308;-69
2024/03/24 03:38:10;;;;;;;1999.90;999.90;;;;;;;;;;4974223;28;20207;-69
2024/03/24 03:40:54;;;;;;;1999.90;999.90;;;;;;;;;;4983302;28;20582;-69
2024/03/24 03:43:40;;;;;;;1999.90;999.90;;;;;;;;;;4993589;28;20218;-69
2024/03/24 03:46:24;;;;;;;1999.90;999.90;;;;;;;;;;4993447;28;20242;-68
2024/03/24 03:49:14;;;;;;;1999.90;999.90;;;;;;;;;;4985839;28;20209;-68
2024/03/24 03:51:58;;;;;;;1999.90;999.90;;;;;;;;;;4993081;28;20288;-68
2024/03/24 03:54:42;;;;;;;1999.90;999.90;;;;;;;;;;4993071;28;20097;-67
2024/03/24 03:57:26;;;;;;;1999.90;999.90;;;;;;;;;;4992838;28;20220;-67
2024/03/24 04:00:13;;;;;;;1999.90;999.90;;;;;;;;;;4993326;28;20210;-68
2024/03/24 04:02:57;;;;;;;1999.90;999.90;;;;;;;;;;4993279;28;20278;-68
2024/03/24 04:05:42;;;;;;;1999.90;999.90;;;;;;;;;;4993072;28;20228;-67
2024/03/24 04:08:27;;;;;;;1999.90;999.90;;;;;;;;;;4992787;28;20295;-67
2024/03/24 04:11:11;;;;;;;1999.90;999.90;;;;;;;;;;4993050;28;20212;-67
2024/03/24 04:13:56;;;;;;;1999.90;999.90;;;;;;;;;;4991839;28;20440;-67
2024/03/24 04:16:42;;;;;;;1999.90;999.90;;;;;;;;;;4992915;28;20200;-64
2024/03/24 04:19:26;;;;;;;1999.90;999.90;;;;;;;;;;4992331;28;20640;-66
2024/03/24 04:22:12;;;;;;;1999.90;999.90;;;;;;;;;;4992981;28;20282;-67
2024/03/24 04:24:56;;;;;;;1999.90;999.90;;;;;;;;;;4992592;28;20276;-65
2024/03/24 04:27:41;;;;;;;1999.90;999.90;;;;;;;;;;4992820;28;20271;-65
2024/03/24 04:30:26;;;;;;;1999.90;999.90;;;;;;;;;;4992765;28;20587;-66
2024/03/24 04:33:12;;;;;;;1999.90;999.90;;;;;;;;;;4992834;28;20207;-67
2024/03/24 04:35:56;;;;;;;1999.90;999.90;;;;;;;;;;4992483;28;20204;-66
2024/03/24 04:38:41;;;;;;;1999.90;999.90;;;;;;;;;;4992430;28;20339;-67
2024/03/24 04:41:27;;;;;;;1999.90;999.90;;;;;;;;;;4992880;28;20295;-68
2024/03/24 04:44:11;;;;;;;1999.90;999.90;;;;;;;;;;4992307;28;20254;-67
2024/03/24 04:46:56;;;;;;;1999.90;999.90;;;;;;;;;;4992375;28;20710;-68
2024/03/24 04:49:43;;;;;;;1999.90;999.90;;;;;;;;;;4992782;28;20223;-67
2024/03/24 04:52:27;;;;;;;1999.90;999.90;;;;;;;;;;4991398;28;20409;-67
2024/03/24 04:55:12;;;;;;;1999.90;999.90;;;;;;;;;;4992276;28;20231;-67
2024/03/24 04:57:56;;;;;;;1999.90;999.90;;;;;;;;;;4992596;28;20245;-67
2024/03/24 05:00:41;;;;;;;1999.90;999.90;;;;;;;;;;4996507;28;20186;-68
2024/03/24 05:03:25;;;;;;;1999.90;999.90;;;;;;;;;;4996291;28;20247;-67
2024/03/24 05:06:11;;;;;;;1999.90;999.90;;;;;;;;;;4996299;28;20212;-66
2024/03/24 05:08:55;;;;;;;1999.90;999.90;;;;;;;;;;4995253;28;20437;-67
2024/03/24 05:11:39;;;;;;;1999.90;999.90;;;;;;;;;;4996156;28;20205;-67
2024/03/24 05:14:23;;;;;;;1999.90;999.90;;;;;;;;;;4995851;28;20754;-66
2024/03/24 05:17:08;;;;;;;1999.90;999.90;;;;;;;;;;4996115;28;20314;-66
2024/03/24 05:19:55;;;;;;;1999.90;999.90;;;;;;;;;;4995713;28;20199;-68
2024/03/24 05:22:40;;;;;;;1999.90;999.90;;;;;;;;;;4996066;28;20584;-68
2024/03/24 05:25:25;;;;;;;1999.90;999.90;;;;;;;;;;4995710;28;20238;-67
2024/03/24 05:28:09;;;;;;;1999.90;999.90;;;;;;;;;;4995731;28;20232;-68
2024/03/24 05:30:54;;;;;;;1999.90;999.90;;;;;;;;;;4995675;28;20336;-67
2024/03/24 05:33:39;;;;;;;1999.90;999.90;;;;;;;;;;4995013;28;20231;-68
2024/03/24 05:36:24;;;;;;;1999.90;999.90;;;;;;;;;;4995249;28;20212;-67
2024/03/24 05:39:09;;;;;;;1999.90;999.90;;;;;;;;;;4976194;28;20204;-67
2024/03/24 05:41:54;;;;;;;1999.90;999.90;;;;;;;;;;4994485;28;20209;-67
2024/03/24 05:44:39;;;;;;;1999.90;999.90;;;;;;;;;;4995153;28;20704;-68
2024/03/24 05:47:24;;;;;;;1999.90;999.90;;;;;;;;;;4995213;28;20228;-66
2024/03/24 05:50:08;;;;;;;1999.90;999.90;;;;;;;;;;4995419;28;20211;-67
2024/03/24 05:52:53;;;;;;;1999.90;999.90;;;;;;;;;;4994722;28;20235;-68
2024/03/24 05:55:38;;;;;;;1999.90;999.90;;;;;;;;;;4994599;28;20792;-66
2024/03/24 05:58:23;;;;;;;1999.90;999.90;;;;;;;;;;4995220;28;20209;-67
2024/03/24 06:01:07;;;;;;;1999.90;999.90;;;;;;;;;;4995013;28;20283;-67
2024/03/24 06:03:52;;;;;;;1999.90;999.90;;;;;;;;;;4992368;28;20445;-67
2024/03/24 06:06:38;;;;;;;1999.90;999.90;;;;;;;;;;4994673;28;20212;-67
2024/03/24 06:09:22;;;;;;;1999.90;999.90;;;;;;;;;;4995146;28;20212;-67
2024/03/24 06:12:08;;;;;;;1999.90;999.90;;;;;;;;;;4994376;28;20239;-67
2024/03/24 06:14:52;;;;;;;1999.90;999.90;;;;;;;;;;4994658;28;20319;-67
2024/03/24 06:17:38;;;;;;;1999.90;999.90;;;;;;;;;;4994810;28;20207;-66
2024/03/24 06:20:22;;;;;;;1999.90;999.90;;;;;;;;;;4995006;28;20704;-67
2024/03/24 06:23:07;;;;;;;1999.90;999.90;;;;;;;;;;4989177;28;20584;-67
2024/03/24 06:25:51;;;;;;;1999.90;999.90;;;;;;;;;;4994383;28;20204;-67
2024/03/24 06:28:38;;;;;;;1999.90;999.90;;;;;;;;;;4994279;28;20248;-66
2024/03/24 06:31:22;;;;;;;1999.90;999.90;;;;;;;;;;4994261;28;20220;-66
2024/03/24 06:34:07;;;;;;;1999.90;999.90;;;;;;;;;;4974967;28;20251;-67
2024/03/24 06:36:51;;;;;;;1999.90;999.90;;;;;;;;;;4979264;28;20282;-67
2024/03/24 06:39:36;;;;;;;1999.90;999.90;;;;;;;;;;4994498;28;20695;-68
2024/03/24 06:42:20;;;;;;;1999.90;999.90;;;;;;;;;;4992922;28;20429;-68
2024/03/24 06:45:08;;;;;;;1999.90;999.90;;;;;;;;;;4994277;28;20224;-67
2024/03/24 06:47:52;;;;;;;1999.90;999.90;;;;;;;;;;4993828;28;20720;-67
2024/03/24 06:50:37;;;;;;;1999.90;999.90;;;;;;;;;;4994320;28;20200;-67
2024/03/24 06:53:21;;;;;;;1999.90;999.90;;;;;;;;;;4993925;28;20216;-67
2024/03/24 06:56:06;;;;;;;1999.90;999.90;;;;;;;;;;4994274;28;20216;-67
2024/03/24 06:58:51;;;;;;;1999.90;999.90;;;;;;;;;;4974192;28;20498;-67
2024/03/24 07:01:37;;;;;;;1999.90;999.90;;;;;;;;;;4977071;28;20245;-68
2024/03/24 07:04:21;;;;;;;1999.90;999.90;;;;;;;;;;4993822;28;20236;-66
2024/03/24 07:07:06;;;;;;;1999.90;999.90;;;;;;;;;;4994095;28;20216;-67
2024/03/24 07:09:49;;;;;;;1999.90;999.90;;;;;;;;;;4993995;28;20209;-67
2024/03/24 07:12:34;;;;;;;1999.90;999.90;;;;;;;;;;4993722;28;20203;-67
2024/03/24 07:15:19;;;;;;;1999.90;999.90;;;;;;;;;;4993676;28;20264;-68
2024/03/24 07:18:05;;;;;;;1999.90;999.90;;;;;;;;;;4993510;28;20202;-68
2024/03/24 07:20:57;;;;;;;1999.90;999.90;;;;;;;;;;4993736;28;20256;-68
2024/03/24 07:23:42;;;;;;;1999.90;999.90;;;;;;;;;;4992919;28;20300;-67
2024/03/24 07:26:27;;;;;;;1999.90;999.90;;;;;;;;;;4993015;28;20218;-68
2024/03/24 07:29:11;;;;;;;1999.90;999.90;;;;;;;;;;4993358;28;20776;-67
2024/03/24 07:31:55;;;;;;;1999.90;999.90;;;;;;;;;;4993568;28;20213;-66
2024/03/24 07:34:42;;;;;;;1999.90;999.90;;;;;;;;;;4992985;28;20782;-68
2024/03/24 07:37:26;;;;;;;1999.90;999.90;;;;;;;;;;4993535;28;20256;-67
2024/03/24 07:40:11;;;;;;;1999.90;999.90;;;;;;;;;;4993626;28;20233;-67
2024/03/24 07:42:55;;;;;;;1999.90;999.90;;;;;;;;;;4993621;28;20609;-67
2024/03/24 07:45:40;;;;;;;1999.90;999.90;;;;;;;;;;4993405;28;20208;-67
2024/03/24 07:48:24;;;;;;;1999.90;999.90;;;;;;;;;;4993257;28;20220;-67
2024/03/24 07:51:10;;;;;;;1999.90;999.90;;;;;;;;;;4993416;28;20204;-66
2024/03/24 07:53:54;;;;;;;1999.90;999.90;;;;;;;;;;4992552;28;20461;-66
2024/03/24 07:56:39;;;;;;;1999.90;999.90;;;;;;;;;;4992460;28;20210;-68
2024/03/24 07:59:23;;;;;;;1999.90;999.90;;;;;;;;;;4983172;28;20262;-65
2024/03/24 08:02:08;;;;;;;1999.90;999.90;;;;;;;;;;4993085;28;20205;-67
2024/03/24 08:04:52;;;;;;;1999.90;999.90;;;;;;;;;;4973287;28;20231;-67
2024/03/24 08:07:38;;;;;;;1999.90;999.90;;;;;;;;;;4973260;28;20233;-67
2024/03/24 08:10:23;;;;;;;1999.90;999.90;;;;;;;;;;4973488;28;20215;-67
2024/03/24 08:13:08;;;;;;;1999.90;999.90;;;;;;;;;;4973433;28;20823;-65
2024/03/24 08:15:53;;;;;;;1999.90;999.90;;;;;;;;;;4984465;28;20206;-67
2024/03/24 08:18:38;;;;;;;1999.90;999.90;;;;;;;;;;4992918;28;20673;-68
2024/03/24 08:21:21;;;;;;;1999.90;999.90;;;;;;;;;;4992809;28;20226;-66
2024/03/24 08:24:08;;;;;;;1999.90;999.90;;;;;;;;;;4992060;28;20621;-69
2024/03/24 08:26:52;;;;;;;1999.90;999.90;;;;;;;;;;4990953;28;20199;-69
2024/03/24 08:29:37;;;;;;;1999.90;999.90;;;;;;;;;;4992154;28;20231;-67
2024/03/24 08:32:22;;;;;;;1999.90;999.90;;;;;;;;;;4990537;28;20449;-69
2024/03/24 08:35:08;;;;;;;1999.90;999.90;;;;;;;;;;4991792;28;20274;-67
2024/03/24 08:37:53;;;;;;;1999.90;999.90;;;;;;;;;;4992541;28;20213;-69
2024/03/24 08:40:39;;;;;;;1999.90;999.90;;;;;;;;;;4992532;28;20206;-69
2024/03/24 08:43:24;;;;;;;1999.90;999.90;;;;;;;;;;4990184;28;20349;-69
2024/03/24 08:46:07;;;;;;;1999.90;999.90;;;;;;;;;;4991222;28;20214;-70
2024/03/24 08:48:53;;;;;;;1999.90;999.90;;;;;;;;;;4987821;28;20751;-70
2024/03/24 08:51:37;;;;;;;1999.90;999.90;;;;;;;;;;4989906;28;20500;-68
2024/03/24 08:54:22;;;;;;;1999.90;999.90;;;;;;;;;;4986181;28;20300;-70
2024/03/24 08:57:08;;;;;;;1999.90;999.90;;;;;;;;;;4992113;28;20637;-68
2024/03/24 08:59:54;;;;;;;1999.90;999.90;;;;;;;;;;4992126;28;20207;-69
2024/03/24 09:02:40;;;;;;;1999.90;999.90;;;;;;;;;;4992473;28;20218;-68
2024/03/24 09:05:24;;;;;;;1999.90;999.90;;;;;;;;;;4991921;28;20229;-68
2024/03/24 09:08:09;;;;;;;1999.90;999.90;;;;;;;;;;4990469;28;20738;-69
2024/03/24 09:10:53;;;;;;;1999.90;999.90;;;;;;;;;;4991936;28;20220;-69
2024/03/24 09:13:39;;;;;;;1999.90;999.90;;;;;;;;;;4981629;28;20730;-67
2024/03/24 09:16:23;;;;;;;1999.90;999.90;;;;;;;;;;4981763;28;20207;-69
2024/03/24 09:19:08;;;;;;;1999.90;999.90;;;;;;;;;;4991623;28;20257;-70
2024/03/24 09:21:52;;;;;;;1999.90;999.90;;;;;;;;;;4990509;28;20213;-68
2024/03/24 09:24:37;;;;;;;1999.90;999.90;;;;;;;;;;4991956;28;20273;-69
2024/03/24 09:27:21;;;;;;;1999.90;999.90;;;;;;;;;;4989595;28;20480;-68
2024/03/24 09:30:08;;;;;;;1999.90;999.90;;;;;;;;;;4991916;28;20211;-68
2024/03/24 09:32:52;;;;;;;1999.90;999.90;;;;;;;;;;4991790;28;20330;-68
2024/03/24 09:35:37;;;;;;;1999.90;999.90;;;;;;;;;;4990841;28;20203;-68
2024/03/24 09:38:21;;;;;;;1999.90;999.90;;;;;;;;;;4984436;28;20202;-68
2024/03/24 09:41:07;;;;;;;1999.90;999.90;;;;;;;;;;4992036;28;20210;-68
2024/03/24 09:43:51;;;;;;;1999.90;999.90;;;;;;;;;;4982420;28;20234;-68
2024/03/24 09:46:39;;;;;;;1999.90;999.90;;;;;;;;;;4989413;28;20634;-68
2024/03/24 09:49:25;;;;;;;1999.90;999.90;;;;;;;;;;4994045;28;20233;-69
2024/03/24 09:52:11;;;;;;;1999.90;999.90;;;;;;;;;;4994356;28;20201;-68
2024/03/24 09:54:55;;;;;;;1999.90;999.90;;;;;;;;;;4995142;28;20236;-69
2024/03/24 09:57:40;;;;;;;1999.90;999.90;;;;;;;;;;4994905;28;20208;-68
2024/03/24 10:00:26;;;;;;;1999.90;999.90;;;;;;;;;;4986488;28;20889;-69
2024/03/24 10:03:12;;;;;;;1999.90;999.90;;;;;;;;;;4994709;28;20209;-69
2024/03/24 10:06:00;;;;;;;1999.90;999.90;;;;;;;;;;4975492;28;20602;-69
2024/03/24 10:08:44;;;;;;;1999.90;999.90;;;;;;;;;;4975617;28;20226;-68
2024/03/24 10:11:29;;;;;;;1999.90;999.90;;;;;;;;;;4978522;28;20205;-68
2024/03/24 10:14:15;;;;;;;1999.90;999.90;;;;;;;;;;4994905;28;20280;-69
2024/03/24 10:17:10;;;;;;;1999.90;999.90;;;;;;;;;;4994644;28;20210;-68
2024/03/24 10:20:00;;;;;;;1999.90;999.90;;;;;;;;;;4994434;28;20696;-68
2024/03/24 10:22:54;;;;;;;1999.90;999.90;;;;;;;;;;4984903;28;20273;-68
2024/03/24 10:25:38;;;;;;;1999.90;999.90;;;;;;;;;;4994217;28;20285;-68
2024/03/24 10:28:27;;;;;;;1999.90;999.90;;;;;;;;;;4994478;28;20260;-69
2024/03/24 10:31:11;;;;;;;1999.90;999.90;;;;;;;;;;4981724;28;20675;-68
2024/03/24 10:33:56;;;;;;;1999.90;999.90;;;;;;;;;;4993543;28;20273;-69
2024/03/24 10:36:42;;;;;;;1999.90;999.90;;;;;;;;;;4992822;28;20278;-69
2024/03/24 10:39:27;;;;;;;1999.90;999.90;;;;;;;;;;4993171;28;20418;-69
2024/03/24 10:42:15;;;;;;;1999.90;999.90;;;;;;;;;;4986108;28;20219;-68
2024/03/24 10:45:03;;;;;;;1999.90;999.90;;;;;;;;;;4993822;28;20634;-69
2024/03/24 10:47:50;;;;;;;1999.90;999.90;;;;;;;;;;4994488;28;20211;-69
2024/03/24 10:50:36;;;;;;;1999.90;999.90;;;;;;;;;;4994124;28;20681;-69
2024/03/24 10:53:24;;;;;;;1999.90;999.90;;;;;;;;;;4993043;28;20246;-69
2024/03/24 10:56:09;;;;;;;1999.90;999.90;;;;;;;;;;4993713;28;20204;-68
2024/03/24 10:58:53;;;;;;;1999.90;999.90;;;;;;;;;;4993950;28;20229;-69
2024/03/24 11:01:39;;;;;;;1999.90;999.90;;;;;;;;;;4993466;28;20231;-70
2024/03/24 11:04:24;;;;;;;1999.90;999.90;;;;;;;;;;4990872;28;20231;-69
2024/03/24 11:07:09;;;;;;;1999.90;999.90;;;;;;;;;;4989065;28;20285;-69
2024/03/24 11:09:55;;;;;;;1999.90;999.90;;;;;;;;;;4989412;28;20275;-69
2024/03/24 11:12:39;;;;;;;1999.90;999.90;;;;;;;;;;4988501;28;20097;-70
2024/03/24 11:15:24;;;;;;;1999.90;999.90;;;;;;;;;;4993015;28;20808;-70
2024/03/24 11:18:20;;;;;;;1999.90;999.90;;;;;;;;;;4992544;28;20207;-70
2024/03/24 11:21:07;;;;;;;1999.90;999.90;;;;;;;;;;4993539;28;20203;-69
2024/03/24 11:23:51;;;;;;;1999.90;999.90;;;;;;;;;;4992985;28;20254;-69
2024/03/24 11:26:37;;;;;;;1999.90;999.90;;;;;;;;;;4993326;28;20207;-70
2024/03/24 11:29:39;;;;;;;1999.90;999.90;;;;;;;;;;4993453;28;20294;-69
2024/03/24 11:32:48;;;;;;;1999.90;999.90;;;;;;;;;;4992261;28;20426;-70
2024/03/24 11:35:32;;;;;;;1999.90;999.90;;;;;;;;;;4992999;28;20335;-69
2024/03/24 11:38:17;;;;;;;1999.90;999.90;;;;;;;;;;4992645;28;20231;-72
2024/03/24 11:41:02;;;;;;;1999.90;999.90;;;;;;;;;;4992086;28;20207;-70
2024/03/24 11:43:54;;;;;;;1999.90;999.90;;;;;;;;;;4973687;28;20259;-69
2024/03/24 11:46:38;;;;;;;1999.90;999.90;;;;;;;;;;4978631;28;20212;-69
2024/03/24 11:49:23;;;;;;;1999.90;999.90;;;;;;;;;;4993039;28;20239;-70
2024/03/24 11:52:07;;;;;;;1999.90;999.90;;;;;;;;;;4992691;28;20219;-70
2024/03/24 11:54:52;;;;;;;1999.90;999.90;;;;;;;;;;4992141;28;20731;-71
2024/03/24 11:57:36;;;;;;;1999.90;999.90;;;;;;;;;;4990395;28;20488;-70
2024/03/24 12:00:23;;;;;;;1999.90;999.90;;;;;;;;;;4986310;28;20288;-69
2024/03/24 12:03:07;;;;;;;1999.90;999.90;;;;;;;;;;4992089;28;20295;-69
2024/03/24 12:05:54;;;;;;;1999.90;999.90;;;;;;;;;;4992723;28;20210;-69
2024/03/24 12:08:38;;;;;;;1999.90;999.90;;;;;;;;;;4985486;28;20777;-71
2024/03/24 12:11:24;;;;;;;1999.90;999.90;;;;;;;;;;4992149;28;20788;-69
2024/03/24 12:14:08;;;;;;;1999.90;999.90;;;;;;;;;;4992585;28;20223;-69
2024/03/24 12:17:04;;;;;;;1999.90;999.90;;;;;;;;;;4989094;28;20414;-69
2024/03/24 12:19:48;;;;;;;1999.90;999.90;;;;;;;;;;4992675;28;20661;-69
2024/03/24 12:22:33;;;;;;;1999.90;999.90;;;;;;;;;;4988213;28;20703;-69
2024/03/24 12:25:18;;;;;;;1999.90;999.90;;;;;;;;;;4992455;28;20578;-69
2024/03/24 12:28:03;;;;;;;1999.90;999.90;;;;;;;;;;4992406;28;20207;-70
2024/03/24 12:30:48;;;;;;;1999.90;999.90;;;;;;;;;;4992486;28;20262;-69
2024/03/24 12:33:35;;;;;;;1999.90;999.90;;;;;;;;;;4989563;28;20247;-69
2024/03/24 12:36:20;;;;;;;1999.90;999.90;;;;;;;;;;4992085;28;20207;-70
2024/03/24 12:39:06;;;;;;;1999.90;999.90;;;;;;;;;;4977727;28;20251;-69
2024/03/24 12:41:50;;;;;;;1999.90;999.90;;;;;;;;;;4987404;28;20223;-69
2024/03/24 12:44:35;;;;;;;1999.90;999.90;;;;;;;;;;4991721;28;20342;-69
2024/03/24 12:47:18;;;;;;;1999.90;999.90;;;;;;;;;;4991978;28;20215;-68
2024/03/24 12:50:06;;;;;;;1999.90;999.90;;;;;;;;;;4991967;28;20227;-69
2024/03/24 12:52:51;;;;;;;1999.90;999.90;;;;;;;;;;4986879;28;20523;-70
2024/03/24 12:55:37;;;;;;;1999.90;999.90;;;;;;;;;;4991933;28;20218;-70
2024/03/24 12:58:22;;;;;;;1999.90;999.90;;;;;;;;;;4990915;28;20898;-69
2024/03/24 13:01:08;;;;;;;1999.90;999.90;;;;;;;;;;4994863;28;20204;-69
2024/03/24 13:03:53;;;;;;;1999.90;999.90;;;;;;;;;;4992054;28;20227;-69
2024/03/24 13:06:39;;;;;;;1999.90;999.90;;;;;;;;;;4991922;28;20207;-67
2024/03/24 13:09:24;;;;;;;1999.90;999.90;;;;;;;;;;4991678;28;20223;-68
2024/03/24 13:12:09;;;;;;;1999.90;999.90;;;;;;;;;;4990123;28;20820;-69
2024/03/24 13:14:53;;;;;;;1999.90;999.90;;;;;;;;;;4991215;28;20234;-68
2024/03/24 13:17:39;;;;;;;1999.90;999.90;;;;;;;;;;4982983;28;20605;-69
2024/03/24 13:20:23;;;;;;;1999.90;999.90;;;;;;;;;;4991313;28;20203;-69
2024/03/24 13:23:13;;;;;;;1999.90;999.90;;;;;;;;;;4995140;28;20699;-69
2024/03/24 13:25:58;;;;;;;1999.90;999.90;;;;;;;;;;4995320;28;20215;-69
2024/03/24 13:28:42;;;;;;;1999.90;999.90;;;;;;;;;;4995917;28;20593;-69
2024/03/24 13:31:26;;;;;;;1999.90;999.90;;;;;;;;;;4993917;28;20735;-70
2024/03/24 13:34:12;;;;;;;1999.90;999.90;;;;;;;;;;4993272;28;20354;-69
2024/03/24 13:36:59;;;;;;;1999.90;999.90;;;;;;;;;;4991919;28;20234;-69
2024/03/24 13:39:49;;;;;;;1999.90;999.90;;;;;;;;;;4992383;28;20271;-69
2024/03/24 13:42:42;;;;;;;1999.90;999.90;;;;;;;;;;4992234;28;20383;-69
2024/03/24 13:45:29;;;;;;;1999.90;999.90;;;;;;;;;;4992852;28;20258;-68
2024/03/24 13:48:16;;;;;;;1999.90;999.90;;;;;;;;;;4993288;28;20227;-70
2024/03/24 13:51:01;;;;;;;1999.90;999.90;;;;;;;;;;4990682;28;20203;-69
2024/03/24 13:53:47;;;;;;;1999.90;999.90;;;;;;;;;;4993627;28;20366;-69
2024/03/24 13:56:34;;;;;;;1999.90;999.90;;;;;;;;;;4995063;28;20203;-68
2024/03/24 13:59:19;;;;;;;1999.90;999.90;;;;;;;;;;4994408;28;20692;-69
2024/03/24 14:02:03;;;;;;;1999.90;999.90;;;;;;;;;;4993687;28;20253;-69
2024/03/24 14:04:47;;;;;;;1999.90;999.90;;;;;;;;;;4993400;28;20961;-69
2024/03/24 14:07:32;;;;;;;1999.90;999.90;;;;;;;;;;4994320;28;20208;-69
2024/03/24 14:10:18;;;;;;;1999.90;999.90;;;;;;;;;;4993585;28;20612;-69
2024/03/24 14:13:05;;;;;;;1999.90;999.90;;;;;;;;;;4990400;28;20262;-68
2024/03/24 14:15:54;;;;;;;1999.90;999.90;;;;;;;;;;4993111;28;20211;-70
2024/03/24 14:18:42;;;;;;;1999.90;999.90;;;;;;;;;;4982600;28;20207;-69
2024/03/24 14:21:31;;;;;;;1999.90;999.90;;;;;;;;;;4994429;28;20239;-69
2024/03/24 14:24:21;;;;;;;1999.90;999.90;;;;;;;;;;4993429;28;20347;-69
2024/03/24 14:27:06;;;;;;;1999.90;999.90;;;;;;;;;;4994668;28;20258;-69
2024/03/24 14:29:51;;;;;;;1999.90;999.90;;;;;;;;;;4994376;28;20227;-70
2024/03/24 14:32:37;;;;;;;1999.90;999.90;;;;;;;;;;4993693;28;20327;-69
2024/03/24 14:35:21;;;;;;;1999.90;999.90;;;;;;;;;;4994354;28;20314;-69
2024/03/24 14:38:13;;;;;;;1999.90;999.90;;;;;;;;;;4993197;28;20453;-68
2024/03/24 14:41:01;;;;;;;1999.90;999.90;;;;;;;;;;4992114;28;20207;-70
2024/03/24 14:44:00;;;;;;;1999.90;999.90;;;;;;;;;;4978492;28;20223;-69
2024/03/24 14:46:52;;;;;;;1999.90;999.90;;;;;;;;;;4993726;28;20223;-69
2024/03/24 14:49:37;;;;;;;1999.90;999.90;;;;;;;;;;4994316;28;20220;-68
2024/03/24 14:52:21;;;;;;;1999.90;999.90;;;;;;;;;;4993662;28;20339;-69
2024/03/24 14:55:06;;;;;;;1999.90;999.90;;;;;;;;;;4993918;28;20762;-68
2024/03/24 14:57:50;;;;;;;1999.90;999.90;;;;;;;;;;4991967;28;20436;-66
2024/03/24 15:00:35;;;;;;;1999.90;999.90;;;;;;;;;;4993393;28;20223;-69
2024/03/24 15:03:21;;;;;;;1999.90;999.90;;;;;;;;;;4991914;28;20212;-69
2024/03/24 15:06:06;;;;;;;1999.90;999.90;;;;;;;;;;4989580;28;20697;-69
2024/03/24 15:08:50;;;;;;;1999.90;999.90;;;;;;;;;;4987461;28;20342;-70
2024/03/24 15:11:36;;;;;;;1999.90;999.90;;;;;;;;;;4993914;28;20242;-69
2024/03/24 15:14:20;;;;;;;1999.90;999.90;;;;;;;;;;4993763;28;20235;-69
2024/03/24 15:17:05;;;;;;;1999.90;999.90;;;;;;;;;;4993561;28;20203;-70
2024/03/24 15:19:51;;;;;;;1999.90;999.90;;;;;;;;;;4993820;28;20208;-69
2024/03/24 15:22:36;;;;;;;1999.90;999.90;;;;;;;;;;4993744;28;20215;-69
2024/03/24 15:25:20;;;;;;;1999.90;999.90;;;;;;;;;;4993420;28;20247;-70
2024/03/24 15:28:05;;;;;;;1999.90;999.90;;;;;;;;;;4993895;28;20250;-70
2024/03/24 15:30:49;;;;;;;1999.90;999.90;;;;;;;;;;4993332;28;20723;-70
2024/03/24 15:33:34;;;;;;;1999.90;999.90;;;;;;;;;;4993002;28;20405;-69
2024/03/24 15:36:19;;;;;;;1999.90;999.90;;;;;;;;;;4993549;28;20803;-69
2024/03/24 15:39:04;;;;;;;1999.90;999.90;;;;;;;;;;4993462;28;20207;-69
2024/03/24 15:41:48;;;;;;;1999.90;999.90;;;;;;;;;;4993233;28;20206;-69
2024/03/24 15:44:33;;;;;;;1999.90;999.90;;;;;;;;;;4992276;28;20230;-69
2024/03/24 15:47:19;;;;;;;1999.90;999.90;;;;;;;;;;4993521;28;20707;-70
2024/03/24 15:50:03;;;;;;;1999.90;999.90;;;;;;;;;;4993023;28;20711;-69
2024/03/24 15:52:50;;;;;;;1999.90;999.90;;;;;;;;;;4992488;28;20910;-69
2024/03/24 15:55:38;;;;;;;1999.90;999.90;;;;;;;;;;4993029;28;20724;-70
2024/03/24 15:58:29;;;;;;;1999.90;999.90;;;;;;;;;;4993136;28;20207;-70
2024/03/24 16:01:22;;;;;;;1999.90;999.90;;;;;;;;;;4993123;28;20204;-69
2024/03/24 16:04:07;;;;;;;1999.90;999.90;;;;;;;;;;4992896;28;20262;-69
2024/03/24 16:06:50;;;;;;;1999.90;999.90;;;;;;;;;;4992984;28;20289;-69
2024/03/24 16:09:40;;;;;;;1999.90;999.90;;;;;;;;;;4992867;28;20227;-69
2024/03/24 16:12:30;;;;;;;1999.90;999.90;;;;;;;;;;4992937;28;20206;-69
2024/03/24 16:15:15;;;;;;;1999.90;999.90;;;;;;;;;;4992690;28;20266;-69
2024/03/24 16:17:59;;;;;;;1999.90;999.90;;;;;;;;;;4992845;28;20210;-69
2024/03/24 16:20:49;;;;;;;1999.90;999.90;;;;;;;;;;4993126;28;20199;-69
2024/03/24 16:23:34;;;;;;;1999.90;999.90;;;;;;;;;;4993821;28;20219;-69
2024/03/24 16:26:20;;;;;;;1999.90;999.90;;;;;;;;;;4992759;28;20306;-70
2024/03/24 16:29:04;;;;;;;1999.90;999.90;;;;;;;;;;4991619;28;20922;-70
2024/03/24 16:31:49;;;;;;;1999.90;999.90;;;;;;;;;;4992659;28;20211;-69
2024/03/24 16:34:32;;;;;;;1999.90;999.90;;;;;;;;;;4992615;28;20590;-69
2024/03/24 16:37:17;;;;;;;1999.90;999.90;;;;;;;;;;4992742;28;20336;-69
2024/03/24 16:40:04;;;;;;;1999.90;999.90;;;;;;;;;;4992514;28;20206;-70
2024/03/24 16:42:52;;;;;;;1999.90;999.90;;;;;;;;;;4993045;28;20199;-69
2024/03/24 16:45:37;;;;;;;1999.90;999.90;;;;;;;;;;4992372;28;20287;-69
2024/03/24 16:48:21;;;;;;;1999.90;999.90;;;;;;;;;;4991736;28;20420;-69
2024/03/24 16:51:06;;;;;;;1999.90;999.90;;;;;;;;;;4992054;28;20219;-68
2024/03/24 16:53:50;;;;;;;1999.90;999.90;;;;;;;;;;4992230;28;20230;-69
2024/03/24 16:56:34;;;;;;;1999.90;999.90;;;;;;;;;;4996312;28;20346;-69
2024/03/24 16:59:21;;;;;;;1999.90;999.90;;;;;;;;;;4996586;28;20211;-69
2024/03/24 17:02:07;;;;;;;1999.90;999.90;;;;;;;;;;4996539;28;20207;-69
2024/03/24 17:04:51;;;;;;;1999.90;999.90;;;;;;;;;;4996175;28;20222;-69
2024/03/24 17:07:36;;;;;;;1999.90;999.90;;;;;;;;;;4996007;28;20688;-68
2024/03/24 17:10:20;;;;;;;1999.90;999.90;;;;;;;;;;4995982;28;20366;-69
2024/03/24 17:13:05;;;;;;;1999.90;999.90;;;;;;;;;;4996271;28;20281;-69
2024/03/24 17:15:50;;;;;;;1999.90;999.90;;;;;;;;;;4995646;28;20699;-70
2024/03/24 17:18:35;;;;;;;1999.90;999.90;;;;;;;;;;4996095;28;20202;-70
2024/03/24 17:21:19;;;;;;;1999.90;999.90;;;;;;;;;;4995453;28;20509;-69
2024/03/24 17:24:04;;;;;;;1999.90;999.90;;;;;;;;;;4996106;28;20591;-70
2024/03/24 17:26:48;;;;;;;1999.90;999.90;;;;;;;;;;4996407;28;20280;-70
2024/03/24 17:29:33;;;;;;;1999.90;999.90;;;;;;;;;;4995773;28;20220;-69
2024/03/24 17:32:19;;;;;;;1999.90;999.90;;;;;;;;;;4995854;28;20763;-69
2024/03/24 17:35:04;;;;;;;1999.90;999.90;;;;;;;;;;4995965;28;20400;-69
2024/03/24 17:37:48;;;;;;;1999.90;999.90;;;;;;;;;;4995565;28;20704;-69
2024/03/24 17:40:33;;;;;;;1999.90;999.90;;;;;;;;;;4995350;28;20444;-69
2024/03/24 17:43:17;;;;;;;1999.90;999.90;;;;;;;;;;4996378;28;20563;-70
2024/03/24 17:46:02;;;;;;;1999.90;999.90;;;;;;;;;;4996315;28;20783;-69
2024/03/24 17:48:47;;;;;;;1999.90;999.90;;;;;;;;;;4995815;28;20214;-68
2024/03/24 17:51:32;;;;;;;1999.90;999.90;;;;;;;;;;4995187;28;20379;-71
2024/03/24 17:54:16;;;;;;;1999.90;999.90;;;;;;;;;;4995542;28;20245;-69
2024/03/24 17:57:01;;;;;;;1999.90;999.90;;;;;;;;;;4995740;28;20201;-71
2024/03/24 17:59:47;;;;;;;1999.90;999.90;;;;;;;;;;4995507;28;20205;-68
2024/03/24 18:02:32;;;;;;;1999.90;999.90;;;;;;;;;;4995321;28;20777;-68
2024/03/24 18:05:18;;;;;;;1999.90;999.90;;;;;;;;;;4994964;28;20614;-69
2024/03/24 18:11:07;;;;;;;1999.90;999.90;;;;;;;;;;4994903;28;20772;-69
2024/03/24 18:13:52;;;;;;;1999.90;999.90;;;;;;;;;;4994891;28;20648;-69
2024/03/24 18:16:37;;;;;;;1999.90;999.90;;;;;;;;;;4995309;28;20577;-68
2024/03/24 18:19:22;;;;;;;1999.90;999.90;;;;;;;;;;4994953;28;20741;-69